Flight Track Log - Related Links

Times and Time Zones

All times are in EDT time to prevent confusion due to time zone crossing. See the AAY891 flight status page for this flight to view local times or setup timezone preferences in your user account.

Time Position Orientation Groundspeed Altitude Reporting Facility
EDT Latitude Longitude Course Direction KTS MPH feet Rate Location/Type
Mon 07:18:40 PM 40.9025 -85.2211 149° Southeast 206 237 3,700  Level Chicago Center
Mon 07:19:42 PM 40.8228 -85.2603 200° South 251 289 6,800 2,855 Climbing Chicago Center
Mon 07:20:44 PM 40.7533 -85.2936 200° South 262 302 9,600 2,226 Climbing Chicago Center
Mon 07:21:46 PM 40.6761 -85.3278 199° South 285 328 11,400 1,935 Climbing Chicago Center
Mon 07:22:48 PM 40.5931 -85.3575 195° South 329 379 13,600 2,468 Climbing Chicago Center
Mon 07:23:00 PM 39.9656 -84.9687 149° Southeast  Level Estimated
Mon 07:23:50 PM 40.4794 -85.3194 166° South 355 409 16,500  Level Chicago Center
Mon 07:24:52 PM 40.3853 -85.2686 158° South 360 414 18,700 1,790 Climbing Chicago Center
Mon 07:25:54 PM 40.2894 -85.2078 154° Southeast 376 433 20,200 1,306 Climbing Chicago Center
Mon 07:26:56 PM 40.1892 -85.1492 156° South 390 449 21,400 1,273 Climbing Chicago Center
Mon 07:28:06 PM 40.0636 -85.0808 157° South 402 463 23,000 1,273 Climbing Indianapolis Center
Mon 07:29:08 PM 39.9644 -84.9922 146° Southeast 425 489 24,200 1,220 Climbing Indianapolis Center
Mon 07:30:09 PM 39.8639 -84.9042 146° Southeast 429 494 25,500 927 Climbing Indianapolis Center
Mon 07:31:11 PM 39.7503 -84.8072 147° Southeast 437 503 26,100 683 Climbing Indianapolis Center
Mon 07:32:12 PM 39.6408 -84.7158 147° Southeast 457 526 26,900 927 Climbing Indianapolis Center
Mon 07:33:14 PM 39.5228 -84.6450 155° Southeast 466 536 28,000 1,073 Climbing Indianapolis Center
Mon 07:34:15 PM 39.3972 -84.6136 169° South 464 534 29,100 976 Climbing Indianapolis Center
Mon 07:35:17 PM 39.2703 -84.5919 172° South 464 534 30,000 829 Climbing Indianapolis Center
Mon 07:36:18 PM 39.1442 -84.5664 171° South 464 534 30,800 927 Climbing Indianapolis Center
Mon 07:37:20 PM 38.9917 -84.5322 170° South 464 534 31,900 1,016 Climbing Indianapolis Center
Mon 07:38:22 PM 38.8642 -84.5019 170° South 464 534 32,900 537 Climbing Indianapolis Center
Mon 07:39:23 PM 38.7381 -84.4711 169° South 464 534 33,000 49 Climbing Indianapolis Center
Mon 07:40:25 PM 38.6061 -84.4450 171° South 464 534 33,000  Level Indianapolis Center
Mon 07:41:26 PM 38.4769 -84.4197 171° South 464 534 33,000  Level Indianapolis Center
Mon 07:42:28 PM 38.3475 -84.3939 171° South 467 537 33,000  Level Indianapolis Center
Mon 07:43:29 PM 38.2200 -84.3639 170° South 467 537 33,000  Level Indianapolis Center
Mon 07:44:31 PM 38.0906 -84.3353 170° South 467 537 33,000  Level Indianapolis Center
Mon 07:45:32 PM 37.9389 -84.3050 171° South 469 540 33,000  Level Indianapolis Center
Mon 07:46:34 PM 37.8097 -84.2800 171° South 469 540 33,000  Level Indianapolis Center
Mon 07:47:36 PM 37.6792 -84.2533 171° South 470 541 33,000  Level Indianapolis Center
Mon 07:48:37 PM 37.5503 -84.2256 170° South 470 541 33,000  Level Indianapolis Center
Mon 07:49:39 PM 37.4178 -84.1972 170° South 475 547 33,000  Level Indianapolis Center
Mon 07:50:40 PM 37.2869 -84.1714 171° South 476 548 33,000  Level Indianapolis Center
Mon 07:51:42 PM 37.1561 -84.1456 171° South 477 549 33,000  Level Indianapolis Center
Mon 07:52:43 PM 37.0047 -84.1150 171° South 476 548 33,000  Level Indianapolis Center
Mon 07:53:45 PM 36.8739 -84.0886 171° South 476 548 33,000  Level Indianapolis Center
Mon 07:54:47 PM 36.7447 -84.0617 171° South 476 548 33,000  Level Indianapolis Center
Mon 07:55:48 PM 36.6139 -84.0353 171° South 476 548 33,000  Level Indianapolis Center
Mon 07:56:50 PM 36.4742 -84.0067 171° South 475 547 33,000  Level Indianapolis Center
Mon 07:57:51 PM 36.3422 -83.9811 171° South 476 548 33,000  Level Indianapolis Center
Mon 07:58:53 PM 36.2100 -83.9533 170° South 476 548 33,000  Level Indianapolis Center
Mon 07:59:47 PM 36.0833 -83.9283 171° South 483 556 33,000  Level Atlanta Center
Mon 08:00:47 PM 35.9769 -83.9078 171° South 483 556 33,000  Level Atlanta Center
Mon 08:01:47 PM 35.8350 -83.9056 179° South 483 556 33,000  Level Atlanta Center
Mon 08:02:47 PM 35.7036 -83.9364 191° South 478 550 33,000  Level Atlanta Center
Mon 08:03:47 PM 35.5786 -83.9775 195° South 478 550 33,000  Level Atlanta Center
Mon 08:04:47 PM 35.4492 -84.0108 192° South 478 550 33,000  Level Atlanta Center
Mon 08:05:47 PM 35.3239 -84.0389 190° South 472 543 33,000  Level Atlanta Center
Mon 08:06:47 PM 35.1947 -84.0642 189° South 467 537 33,000  Level Atlanta Center
Mon 08:07:47 PM 35.0672 -84.0972 192° South 467 537 33,000  Level Atlanta Center
Mon 08:08:47 PM 34.9400 -84.1275 191° South 467 537 33,000  Level Atlanta Center
Mon 08:09:47 PM 34.8169 -84.1603 192° South 467 537 33,000  Level Atlanta Center
Mon 08:10:47 PM 34.6894 -84.1878 190° South 467 537 33,000  Level Atlanta Center
Mon 08:11:47 PM 34.5706 -84.2153 191° South 455 524 33,000  Level Atlanta Center
Mon 08:12:47 PM 34.4453 -84.2428 190° South 455 524 33,000  Level Atlanta Center
Mon 08:13:47 PM 34.3242 -84.2753 192° South 455 524 33,000  Level Atlanta Center
Mon 08:14:47 PM 34.2008 -84.3025 190° South 449 517 33,000  Level Atlanta Center
Mon 08:15:47 PM 34.0631 -84.3322 190° South 456 525 33,000  Level Atlanta Center
Mon 08:16:47 PM 33.9461 -84.3794 199° South 450 518 33,000  Level Atlanta Center
Mon 08:17:47 PM 33.8311 -84.4314 201° Southwest 444 511 33,000  Level Atlanta Center
Mon 08:18:47 PM 33.7081 -84.4633 192° South 444 511 33,000  Level Atlanta Center
Mon 08:19:47 PM 33.5847 -84.4628 180° South 439 505 33,000  Level Atlanta Center
Mon 08:20:47 PM 33.4617 -84.4522 176° South 444 511 33,000  Level Atlanta Center
Mon 08:21:47 PM 33.3386 -84.4417 176° South 444 511 33,000  Level Atlanta Center
Mon 08:22:47 PM 33.2153 -84.4436 181° South 439 505 33,000  Level Atlanta Center
Mon 08:23:47 PM 33.0903 -84.4456 181° South 439 505 33,000  Level Atlanta Center
Mon 08:24:47 PM 32.9669 -84.4400 178° South 439 505 33,000  Level Atlanta Center
Mon 08:25:47 PM 32.8439 -84.4319 177° South 439 505 33,000  Level Atlanta Center
Mon 08:26:47 PM 32.7333 -84.4314 180° South 439 505 33,000  Level Atlanta Center
Mon 08:27:47 PM 32.6100 -84.4283 179° South 439 505 33,000  Level Atlanta Center
Mon 08:28:47 PM 32.4869 -84.4278 180° South 439 505 33,000  Level Atlanta Center
Mon 08:29:47 PM 32.3597 -84.4225 178° South 444 511 33,000  Level Atlanta Center
Mon 08:31:29 PM 32.1447 -84.4164 179° South 447 514 33,000  Level Jacksonville Center
Mon 08:32:29 PM 32.0197 -84.4142 179° South 452 520 33,000  Level Jacksonville Center
Mon 08:33:29 PM 31.8944 -84.4122 179° South 452 520 33,000  Level Jacksonville Center
Mon 08:34:29 PM 31.7669 -84.4075 178° South 457 526 33,000  Level Jacksonville Center
Mon 08:35:29 PM 31.6419 -84.4008 177° South 457 526 33,000  Level Jacksonville Center
Mon 08:36:29 PM 31.5144 -84.3961 178° South 457 526 33,000 -50 Level Jacksonville Center
Mon 08:37:29 PM 31.3872 -84.3989 181° South 457 526 32,900 -500 Descending Jacksonville Center
Mon 08:38:29 PM 31.2619 -84.3947 178° South 457 526 32,000 -450 Descending Jacksonville Center
Mon 08:39:29 PM 31.1347 -84.3900 178° South 457 526 32,000  Level Jacksonville Center
Mon 08:40:29 PM 31.0072 -84.3856 178° South 457 526 32,000  Level Jacksonville Center
Mon 08:41:29 PM 30.8822 -84.3814 178° South 457 526 32,000  Level Jacksonville Center
Mon 08:42:29 PM 30.7547 -84.3792 179° South 457 526 32,000  Level Jacksonville Center
Mon 08:43:29 PM 30.6294 -84.3772 179° South 457 526 32,000  Level Jacksonville Center
Mon 08:44:29 PM 30.5067 -84.3464 168° South 457 526 32,000  Level Jacksonville Center
Mon 08:45:29 PM 30.3947 -84.2725 150° Southeast 459 528 32,000  Level Jacksonville Center
Mon 08:46:29 PM 30.2869 -84.1939 148° Southeast 459 528 32,000  Level Jacksonville Center
Mon 08:47:29 PM 30.1750 -84.1228 151° Southeast 453 521 32,000  Level Jacksonville Center
Mon 08:48:29 PM 30.0628 -84.0517 151° Southeast 458 527 32,000  Level Jacksonville Center
Mon 08:49:29 PM 29.9486 -83.9808 152° Southeast 458 527 32,000  Level Jacksonville Center
Mon 08:50:29 PM 29.8367 -83.9078 150° Southeast 458 527 32,000  Level Jacksonville Center
Mon 08:51:29 PM 29.7244 -83.8300 149° Southeast 463 533 32,000  Level Jacksonville Center
Mon 08:52:29 PM 29.6100 -83.7597 152° Southeast 463 533 32,000 -200 Level Jacksonville Center
Mon 08:53:29 PM 29.4978 -83.6894 151° Southeast 463 533 31,600 -1,600 Descending Jacksonville Center
Mon 08:54:29 PM 29.3856 -83.6172 151° Southeast 458 527 28,800 -2,067 Descending Jacksonville Center
Mon 08:56:29 PM 29.1672 -83.4728 150° Southeast 458 527 25,400 -1,433 Descending Jacksonville Center
Mon 08:57:29 PM 29.0525 -83.4056 153° Southeast 458 527 24,500 -1,091 Descending Jacksonville Center
Mon 08:58:30 PM 28.9442 -83.3386 152° Southeast 451 519 23,200 -1,800 Descending Jacksonville Center
Mon 08:59:29 PM 28.8422 -83.2742 151° Southeast 441 507 20,900 -2,337 Descending Jacksonville Center
Mon 09:01:40 PM 28.6167 -83.1333 151° Southeast 389 448 15,800 -2,212 Descending Tampa TRACON
Mon 09:02:28 PM 28.5500 -83.0833 147° Southeast 369 425 14,300 -2,222 Descending Tampa TRACON
Mon 09:03:28 PM 28.4667 -83.0333 152° Southeast 352 405 11,800 -1,850 Descending Tampa TRACON
Mon 09:04:28 PM 28.3833 -82.9833 152° Southeast 337 388 10,600 -1,286 Descending Tampa TRACON
Mon 09:05:34 PM 28.3000 -82.9500 161° South 283 326 9,100 -1,350 Descending Tampa TRACON
Mon 09:06:28 PM 28.2333 -82.9167 156° South 278 320 7,900 -1,482 Descending Tampa TRACON
Mon 09:06:59 PM 28.1933 -82.8989 159° South 280 322 7,000 -1,826 Descending Miami Center
Mon 09:08:00 PM 28.1217 -82.8697 160° South 277 319 5,100 -1,623 Descending Miami Center
Mon 09:09:01 PM 28.0517 -82.8458 163° South 270 311 3,700 -1,131 Descending Miami Center
Mon 09:10:02 PM 27.9908 -82.8247 163° South 249 287 2,800 -595 Descending Miami Center
Mon 09:11:02 PM 27.9361 -82.8050 162° South 223 257 2,500 -248 Descending Miami Center
Mon 09:12:03 PM 27.8794 -82.7869 164° South 215 247 2,300 -443 Descending Miami Center
Mon 09:13:04 PM 27.8306 -82.7656 159° South 206 237 1,600 -541 Descending Miami Center
Mon 09:14:16 PM 27.8167 -82.7167 108° East 136 157 1,100 -273 Descending Tampa TRACON
Mon 09:15:16 PM 27.8500 -82.6833 41° Northeast 134 154 1,000 -400 Descending Tampa TRACON
Mon 09:16:16 PM 27.8833 -82.6833 360° North 142 163 300 -700 Descending Tampa TRACON

Login

Don't have an account? Register now (free) for customized features, flight alerts, and more!